sensor_id;sensor_type;location;lat;lon;timestamp;P1;durP1;ratioP1;P2;durP2;ratioP2
65835;SDS011;52595;51.608;7.216;2024-01-07T00:01:10;24.35;;;11.63;;
65835;SDS011;52595;51.608;7.216;2024-01-07T00:03:36;23.27;;;12.52;;
65835;SDS011;52595;51.608;7.216;2024-01-07T00:06:01;26.58;;;11.82;;
65835;SDS011;52595;51.608;7.216;2024-01-07T00:08:27;28.38;;;12.20;;
65835;SDS011;52595;51.608;7.216;2024-01-07T00:10:52;25.13;;;11.73;;
65835;SDS011;52595;51.608;7.216;2024-01-07T00:13:18;29.08;;;12.95;;
65835;SDS011;52595;51.608;7.216;2024-01-07T00:15:43;30.25;;;13.02;;
65835;SDS011;52595;51.608;7.216;2024-01-07T00:18:09;25.85;;;12.13;;
65835;SDS011;52595;51.608;7.216;2024-01-07T00:20:34;25.77;;;11.80;;
65835;SDS011;52595;51.608;7.216;2024-01-07T00:22:59;23.42;;;11.05;;
65835;SDS011;52595;51.608;7.216;2024-01-07T00:25:25;25.05;;;11.43;;
65835;SDS011;52595;51.608;7.216;2024-01-07T00:27:50;24.80;;;11.60;;
65835;SDS011;52595;51.608;7.216;2024-01-07T00:30:17;23.85;;;11.00;;
65835;SDS011;52595;51.608;7.216;2024-01-07T00:32:44;24.13;;;11.38;;
65835;SDS011;52595;51.608;7.216;2024-01-07T00:35:09;24.90;;;11.38;;
65835;SDS011;52595;51.608;7.216;2024-01-07T00:37:34;25.38;;;12.20;;
65835;SDS011;52595;51.608;7.216;2024-01-07T00:40:00;27.80;;;12.02;;
65835;SDS011;52595;51.608;7.216;2024-01-07T00:42:25;31.00;;;13.15;;
65835;SDS011;52595;51.608;7.216;2024-01-07T00:44:51;27.55;;;11.82;;
65835;SDS011;52595;51.608;7.216;2024-01-07T00:47:16;27.65;;;12.05;;
65835;SDS011;52595;51.608;7.216;2024-01-07T00:49:42;32.13;;;12.85;;
65835;SDS011;52595;51.608;7.216;2024-01-07T00:52:07;27.30;;;12.32;;
65835;SDS011;52595;51.608;7.216;2024-01-07T00:54:33;29.05;;;13.00;;
65835;SDS011;52595;51.608;7.216;2024-01-07T00:56:59;29.10;;;12.60;;
65835;SDS011;52595;51.608;7.216;2024-01-07T00:59:24;29.95;;;13.30;;
65835;SDS011;52595;51.608;7.216;2024-01-07T01:01:50;29.33;;;12.98;;
65835;SDS011;52595;51.608;7.216;2024-01-07T01:04:15;30.42;;;13.68;;
65835;SDS011;52595;51.608;7.216;2024-01-07T01:06:40;29.58;;;13.25;;
65835;SDS011;52595;51.608;7.216;2024-01-07T01:09:06;29.90;;;13.25;;
65835;SDS011;52595;51.608;7.216;2024-01-07T01:11:31;28.08;;;12.82;;
65835;SDS011;52595;51.608;7.216;2024-01-07T01:13:56;31.30;;;14.20;;
65835;SDS011;52595;51.608;7.216;2024-01-07T01:16:22;26.85;;;12.90;;
65835;SDS011;52595;51.608;7.216;2024-01-07T01:18:49;30.42;;;13.02;;
65835;SDS011;52595;51.608;7.216;2024-01-07T01:21:14;26.48;;;13.18;;
65835;SDS011;52595;51.608;7.216;2024-01-07T01:23:40;28.35;;;13.32;;
65835;SDS011;52595;51.608;7.216;2024-01-07T01:26:05;28.85;;;13.50;;
65835;SDS011;52595;51.608;7.216;2024-01-07T01:28:31;30.35;;;13.00;;
65835;SDS011;52595;51.608;7.216;2024-01-07T01:30:56;30.77;;;14.68;;
65835;SDS011;52595;51.608;7.216;2024-01-07T01:33:22;30.85;;;13.90;;
65835;SDS011;52595;51.608;7.216;2024-01-07T01:35:47;26.92;;;12.88;;
65835;SDS011;52595;51.608;7.216;2024-01-07T01:38:13;29.88;;;13.35;;
65835;SDS011;52595;51.608;7.216;2024-01-07T01:40:38;29.45;;;13.05;;
65835;SDS011;52595;51.608;7.216;2024-01-07T01:43:03;32.20;;;14.38;;
65835;SDS011;52595;51.608;7.216;2024-01-07T01:45:29;30.58;;;13.80;;
65835;SDS011;52595;51.608;7.216;2024-01-07T01:47:54;30.27;;;14.20;;
65835;SDS011;52595;51.608;7.216;2024-01-07T01:50:20;30.88;;;13.90;;
65835;SDS011;52595;51.608;7.216;2024-01-07T01:52:46;33.20;;;14.07;;
65835;SDS011;52595;51.608;7.216;2024-01-07T01:55:13;31.20;;;13.88;;
65835;SDS011;52595;51.608;7.216;2024-01-07T01:57:38;30.27;;;13.68;;
65835;SDS011;52595;51.608;7.216;2024-01-07T02:00:05;30.60;;;13.85;;
65835;SDS011;52595;51.608;7.216;2024-01-07T02:02:31;31.90;;;14.00;;
65835;SDS011;52595;51.608;7.216;2024-01-07T02:05:05;32.28;;;14.77;;
65835;SDS011;52595;51.608;7.216;2024-01-07T02:07:30;31.95;;;13.75;;
65835;SDS011;52595;51.608;7.216;2024-01-07T02:09:56;29.50;;;13.82;;
65835;SDS011;52595;51.608;7.216;2024-01-07T02:12:22;27.92;;;13.15;;
65835;SDS011;52595;51.608;7.216;2024-01-07T02:14:47;32.00;;;14.40;;
65835;SDS011;52595;51.608;7.216;2024-01-07T02:17:12;32.28;;;14.15;;
65835;SDS011;52595;51.608;7.216;2024-01-07T02:19:38;36.53;;;15.30;;
65835;SDS011;52595;51.608;7.216;2024-01-07T02:22:03;31.65;;;13.57;;
65835;SDS011;52595;51.608;7.216;2024-01-07T02:24:29;32.30;;;14.77;;
65835;SDS011;52595;51.608;7.216;2024-01-07T02:26:55;30.63;;;14.20;;
65835;SDS011;52595;51.608;7.216;2024-01-07T02:29:21;32.97;;;14.77;;
65835;SDS011;52595;51.608;7.216;2024-01-07T02:31:46;30.30;;;14.32;;
65835;SDS011;52595;51.608;7.216;2024-01-07T02:34:12;30.77;;;14.98;;
65835;SDS011;52595;51.608;7.216;2024-01-07T02:36:37;31.88;;;14.63;;
65835;SDS011;52595;51.608;7.216;2024-01-07T02:39:02;31.40;;;14.38;;
65835;SDS011;52595;51.608;7.216;2024-01-07T02:41:28;32.50;;;14.93;;
65835;SDS011;52595;51.608;7.216;2024-01-07T02:43:54;29.65;;;14.43;;
65835;SDS011;52595;51.608;7.216;2024-01-07T02:46:19;29.42;;;14.18;;
65835;SDS011;52595;51.608;7.216;2024-01-07T02:48:45;29.45;;;13.75;;
65835;SDS011;52595;51.608;7.216;2024-01-07T02:51:10;30.42;;;13.27;;
65835;SDS011;52595;51.608;7.216;2024-01-07T02:53:36;28.25;;;13.82;;
65835;SDS011;52595;51.608;7.216;2024-01-07T02:56:01;28.10;;;13.52;;
65835;SDS011;52595;51.608;7.216;2024-01-07T02:58:27;29.92;;;13.43;;
65835;SDS011;52595;51.608;7.216;2024-01-07T03:00:52;25.63;;;13.10;;
65835;SDS011;52595;51.608;7.216;2024-01-07T03:03:17;24.38;;;12.80;;
65835;SDS011;52595;51.608;7.216;2024-01-07T03:05:43;25.48;;;13.02;;
65835;SDS011;52595;51.608;7.216;2024-01-07T03:08:08;25.17;;;13.23;;
65835;SDS011;52595;51.608;7.216;2024-01-07T03:10:33;28.50;;;13.75;;
65835;SDS011;52595;51.608;7.216;2024-01-07T03:13:00;25.65;;;12.95;;
65835;SDS011;52595;51.608;7.216;2024-01-07T03:15:25;24.88;;;12.68;;
65835;SDS011;52595;51.608;7.216;2024-01-07T03:17:51;25.55;;;13.27;;
65835;SDS011;52595;51.608;7.216;2024-01-07T03:20:16;26.67;;;13.48;;
65835;SDS011;52595;51.608;7.216;2024-01-07T03:22:41;27.35;;;14.05;;
65835;SDS011;52595;51.608;7.216;2024-01-07T03:25:07;30.02;;;13.73;;
65835;SDS011;52595;51.608;7.216;2024-01-07T03:27:33;27.10;;;12.85;;
65835;SDS011;52595;51.608;7.216;2024-01-07T03:29:58;24.60;;;12.82;;
65835;SDS011;52595;51.608;7.216;2024-01-07T03:32:23;27.35;;;13.20;;
65835;SDS011;52595;51.608;7.216;2024-01-07T03:34:49;23.95;;;12.57;;
65835;SDS011;52595;51.608;7.216;2024-01-07T03:37:14;28.73;;;14.10;;
65835;SDS011;52595;51.608;7.216;2024-01-07T03:39:40;27.02;;;13.38;;
65835;SDS011;52595;51.608;7.216;2024-01-07T03:42:05;24.05;;;12.35;;
65835;SDS011;52595;51.608;7.216;2024-01-07T03:44:36;25.05;;;12.95;;
65835;SDS011;52595;51.608;7.216;2024-01-07T03:47:02;23.50;;;12.48;;
65835;SDS011;52595;51.608;7.216;2024-01-07T03:49:27;26.00;;;12.95;;
65835;SDS011;52595;51.608;7.216;2024-01-07T03:51:52;26.60;;;13.02;;
65835;SDS011;52595;51.608;7.216;2024-01-07T03:54:18;25.50;;;12.70;;
65835;SDS011;52595;51.608;7.216;2024-01-07T03:56:43;25.08;;;13.18;;
65835;SDS011;52595;51.608;7.216;2024-01-07T03:59:08;25.23;;;13.00;;
65835;SDS011;52595;51.608;7.216;2024-01-07T04:01:34;26.58;;;13.00;;
65835;SDS011;52595;51.608;7.216;2024-01-07T04:03:59;26.55;;;12.60;;
65835;SDS011;52595;51.608;7.216;2024-01-07T04:06:24;27.38;;;13.18;;
65835;SDS011;52595;51.608;7.216;2024-01-07T04:08:50;26.30;;;13.27;;
65835;SDS011;52595;51.608;7.216;2024-01-07T04:11:15;24.98;;;13.23;;
65835;SDS011;52595;51.608;7.216;2024-01-07T04:13:41;23.73;;;11.77;;
65835;SDS011;52595;51.608;7.216;2024-01-07T04:16:14;27.65;;;13.45;;
65835;SDS011;52595;51.608;7.216;2024-01-07T04:18:44;31.05;;;13.57;;
65835;SDS011;52595;51.608;7.216;2024-01-07T04:21:10;26.58;;;12.75;;
65835;SDS011;52595;51.608;7.216;2024-01-07T04:23:36;26.95;;;12.98;;
65835;SDS011;52595;51.608;7.216;2024-01-07T04:26:01;27.40;;;12.65;;
65835;SDS011;52595;51.608;7.216;2024-01-07T04:28:27;29.58;;;13.90;;
65835;SDS011;52595;51.608;7.216;2024-01-07T04:30:52;23.52;;;11.85;;
65835;SDS011;52595;51.608;7.216;2024-01-07T04:33:18;28.23;;;13.38;;
65835;SDS011;52595;51.608;7.216;2024-01-07T04:35:43;28.85;;;13.60;;
65835;SDS011;52595;51.608;7.216;2024-01-07T04:38:08;27.80;;;13.60;;
65835;SDS011;52595;51.608;7.216;2024-01-07T04:40:34;25.23;;;13.30;;
65835;SDS011;52595;51.608;7.216;2024-01-07T04:42:59;26.65;;;13.45;;
65835;SDS011;52595;51.608;7.216;2024-01-07T04:45:25;30.17;;;13.23;;
65835;SDS011;52595;51.608;7.216;2024-01-07T04:47:50;27.13;;;13.85;;
65835;SDS011;52595;51.608;7.216;2024-01-07T04:50:16;28.23;;;13.75;;
65835;SDS011;52595;51.608;7.216;2024-01-07T04:52:44;27.35;;;13.32;;
65835;SDS011;52595;51.608;7.216;2024-01-07T04:55:11;26.98;;;13.80;;
65835;SDS011;52595;51.608;7.216;2024-01-07T04:57:36;28.00;;;13.20;;
65835;SDS011;52595;51.608;7.216;2024-01-07T05:00:02;26.30;;;13.65;;
65835;SDS011;52595;51.608;7.216;2024-01-07T05:02:28;28.77;;;14.15;;
65835;SDS011;52595;51.608;7.216;2024-01-07T05:04:54;26.38;;;11.93;;
65835;SDS011;52595;51.608;7.216;2024-01-07T05:07:19;25.25;;;12.80;;
65835;SDS011;52595;51.608;7.216;2024-01-07T05:09:45;27.30;;;12.77;;
65835;SDS011;52595;51.608;7.216;2024-01-07T05:12:10;26.30;;;13.18;;
65835;SDS011;52595;51.608;7.216;2024-01-07T05:14:35;26.52;;;13.27;;
65835;SDS011;52595;51.608;7.216;2024-01-07T05:17:02;29.10;;;13.93;;
65835;SDS011;52595;51.608;7.216;2024-01-07T05:19:28;27.08;;;13.20;;
65835;SDS011;52595;51.608;7.216;2024-01-07T05:21:53;27.02;;;13.82;;
65835;SDS011;52595;51.608;7.216;2024-01-07T05:24:19;25.60;;;13.63;;
65835;SDS011;52595;51.608;7.216;2024-01-07T05:26:44;31.13;;;14.52;;
65835;SDS011;52595;51.608;7.216;2024-01-07T05:29:10;30.38;;;14.20;;
65835;SDS011;52595;51.608;7.216;2024-01-07T05:31:37;25.58;;;13.43;;
65835;SDS011;52595;51.608;7.216;2024-01-07T05:34:03;29.10;;;14.23;;
65835;SDS011;52595;51.608;7.216;2024-01-07T05:36:28;27.88;;;14.02;;
65835;SDS011;52595;51.608;7.216;2024-01-07T05:38:54;28.55;;;14.38;;
65835;SDS011;52595;51.608;7.216;2024-01-07T05:41:19;30.40;;;14.68;;
65835;SDS011;52595;51.608;7.216;2024-01-07T05:43:45;30.85;;;14.40;;
65835;SDS011;52595;51.608;7.216;2024-01-07T05:46:11;27.58;;;14.07;;
65835;SDS011;52595;51.608;7.216;2024-01-07T05:48:47;29.25;;;14.00;;
65835;SDS011;52595;51.608;7.216;2024-01-07T05:51:14;25.63;;;13.45;;
65835;SDS011;52595;51.608;7.216;2024-01-07T05:53:40;26.95;;;14.05;;
65835;SDS011;52595;51.608;7.216;2024-01-07T05:56:06;26.23;;;13.30;;
65835;SDS011;52595;51.608;7.216;2024-01-07T05:58:32;25.33;;;12.80;;
65835;SDS011;52595;51.608;7.216;2024-01-07T06:00:57;26.88;;;13.60;;
65835;SDS011;52595;51.608;7.216;2024-01-07T06:03:23;32.33;;;15.07;;
65835;SDS011;52595;51.608;7.216;2024-01-07T06:05:48;27.70;;;13.82;;
65835;SDS011;52595;51.608;7.216;2024-01-07T06:08:14;27.40;;;14.25;;
65835;SDS011;52595;51.608;7.216;2024-01-07T06:10:39;29.85;;;14.27;;
65835;SDS011;52595;51.608;7.216;2024-01-07T06:13:05;25.90;;;13.30;;
65835;SDS011;52595;51.608;7.216;2024-01-07T06:15:30;24.65;;;12.70;;
65835;SDS011;52595;51.608;7.216;2024-01-07T06:17:56;23.77;;;12.35;;
65835;SDS011;52595;51.608;7.216;2024-01-07T06:20:21;23.42;;;12.50;;
65835;SDS011;52595;51.608;7.216;2024-01-07T06:22:46;25.38;;;12.68;;
65835;SDS011;52595;51.608;7.216;2024-01-07T06:25:12;23.45;;;12.27;;
65835;SDS011;52595;51.608;7.216;2024-01-07T06:27:41;21.95;;;11.52;;
65835;SDS011;52595;51.608;7.216;2024-01-07T06:30:06;25.00;;;11.43;;
65835;SDS011;52595;51.608;7.216;2024-01-07T06:32:32;22.73;;;11.85;;
65835;SDS011;52595;51.608;7.216;2024-01-07T06:34:58;22.42;;;11.30;;
65835;SDS011;52595;51.608;7.216;2024-01-07T06:37:24;23.90;;;11.90;;
65835;SDS011;52595;51.608;7.216;2024-01-07T06:39:50;21.52;;;11.40;;
65835;SDS011;52595;51.608;7.216;2024-01-07T06:42:15;20.63;;;11.18;;
65835;SDS011;52595;51.608;7.216;2024-01-07T06:44:41;17.73;;;9.70;;
65835;SDS011;52595;51.608;7.216;2024-01-07T06:47:06;18.77;;;10.70;;
65835;SDS011;52595;51.608;7.216;2024-01-07T06:49:32;19.85;;;10.63;;
65835;SDS011;52595;51.608;7.216;2024-01-07T06:51:57;20.02;;;10.55;;
65835;SDS011;52595;51.608;7.216;2024-01-07T06:54:22;22.60;;;11.30;;
65835;SDS011;52595;51.608;7.216;2024-01-07T06:56:48;19.65;;;10.77;;
65835;SDS011;52595;51.608;7.216;2024-01-07T06:59:13;20.58;;;9.65;;
65835;SDS011;52595;51.608;7.216;2024-01-07T07:01:39;19.92;;;10.73;;
65835;SDS011;52595;51.608;7.216;2024-01-07T07:04:05;19.23;;;10.70;;
65835;SDS011;52595;51.608;7.216;2024-01-07T07:06:30;19.85;;;10.10;;
65835;SDS011;52595;51.608;7.216;2024-01-07T07:08:55;17.95;;;9.90;;
65835;SDS011;52595;51.608;7.216;2024-01-07T07:11:21;19.42;;;9.75;;
65835;SDS011;52595;51.608;7.216;2024-01-07T07:13:46;18.52;;;10.68;;
65835;SDS011;52595;51.608;7.216;2024-01-07T07:16:11;19.13;;;10.02;;
65835;SDS011;52595;51.608;7.216;2024-01-07T07:18:37;17.77;;;9.90;;
65835;SDS011;52595;51.608;7.216;2024-01-07T07:21:02;17.30;;;9.57;;
65835;SDS011;52595;51.608;7.216;2024-01-07T07:23:28;19.02;;;10.10;;
65835;SDS011;52595;51.608;7.216;2024-01-07T07:25:53;18.33;;;10.27;;
65835;SDS011;52595;51.608;7.216;2024-01-07T07:28:19;21.30;;;10.02;;
65835;SDS011;52595;51.608;7.216;2024-01-07T07:30:44;19.33;;;9.85;;
65835;SDS011;52595;51.608;7.216;2024-01-07T07:33:09;17.58;;;9.77;;
65835;SDS011;52595;51.608;7.216;2024-01-07T07:35:35;21.58;;;10.38;;
65835;SDS011;52595;51.608;7.216;2024-01-07T07:38:00;18.98;;;10.20;;
65835;SDS011;52595;51.608;7.216;2024-01-07T07:40:26;21.50;;;10.07;;
65835;SDS011;52595;51.608;7.216;2024-01-07T07:42:51;19.55;;;10.18;;
65835;SDS011;52595;51.608;7.216;2024-01-07T07:45:17;20.45;;;10.27;;
65835;SDS011;52595;51.608;7.216;2024-01-07T07:47:44;19.08;;;9.98;;
65835;SDS011;52595;51.608;7.216;2024-01-07T07:50:10;22.50;;;10.10;;
65835;SDS011;52595;51.608;7.216;2024-01-07T07:52:36;22.05;;;10.98;;
65835;SDS011;52595;51.608;7.216;2024-01-07T07:55:01;21.63;;;11.13;;
65835;SDS011;52595;51.608;7.216;2024-01-07T07:57:27;19.67;;;10.10;;
65835;SDS011;52595;51.608;7.216;2024-01-07T07:59:53;19.13;;;10.45;;
65835;SDS011;52595;51.608;7.216;2024-01-07T08:02:19;19.70;;;10.15;;
65835;SDS011;52595;51.608;7.216;2024-01-07T08:04:46;19.30;;;9.43;;
65835;SDS011;52595;51.608;7.216;2024-01-07T08:07:12;19.92;;;9.77;;
65835;SDS011;52595;51.608;7.216;2024-01-07T08:09:37;19.75;;;9.80;;
65835;SDS011;52595;51.608;7.216;2024-01-07T08:12:03;17.05;;;8.98;;
65835;SDS011;52595;51.608;7.216;2024-01-07T08:14:29;19.17;;;9.52;;
65835;SDS011;52595;51.608;7.216;2024-01-07T08:16:55;19.27;;;9.43;;
65835;SDS011;52595;51.608;7.216;2024-01-07T08:19:21;19.73;;;9.52;;
65835;SDS011;52595;51.608;7.216;2024-01-07T08:21:47;19.33;;;10.07;;
65835;SDS011;52595;51.608;7.216;2024-01-07T08:24:12;17.90;;;9.23;;
65835;SDS011;52595;51.608;7.216;2024-01-07T08:26:37;19.90;;;9.80;;
65835;SDS011;52595;51.608;7.216;2024-01-07T08:29:03;16.67;;;8.88;;
65835;SDS011;52595;51.608;7.216;2024-01-07T08:31:29;19.77;;;9.85;;
65835;SDS011;52595;51.608;7.216;2024-01-07T08:33:55;15.43;;;9.05;;
65835;SDS011;52595;51.608;7.216;2024-01-07T08:36:20;13.20;;;7.53;;
65835;SDS011;52595;51.608;7.216;2024-01-07T08:38:46;14.55;;;8.63;;
65835;SDS011;52595;51.608;7.216;2024-01-07T08:41:11;18.00;;;9.45;;
65835;SDS011;52595;51.608;7.216;2024-01-07T08:43:36;15.77;;;9.27;;
65835;SDS011;52595;51.608;7.216;2024-01-07T08:46:03;18.67;;;9.63;;
65835;SDS011;52595;51.608;7.216;2024-01-07T08:48:29;17.55;;;9.35;;
65835;SDS011;52595;51.608;7.216;2024-01-07T08:50:55;15.75;;;9.40;;
65835;SDS011;52595;51.608;7.216;2024-01-07T08:53:20;16.75;;;8.95;;
65835;SDS011;52595;51.608;7.216;2024-01-07T08:55:47;16.27;;;8.75;;
65835;SDS011;52595;51.608;7.216;2024-01-07T08:58:13;15.48;;;8.63;;
65835;SDS011;52595;51.608;7.216;2024-01-07T09:00:39;14.48;;;8.35;;
65835;SDS011;52595;51.608;7.216;2024-01-07T09:03:05;13.10;;;8.10;;
65835;SDS011;52595;51.608;7.216;2024-01-07T09:05:31;13.32;;;8.05;;
65835;SDS011;52595;51.608;7.216;2024-01-07T09:07:57;13.10;;;7.47;;
65835;SDS011;52595;51.608;7.216;2024-01-07T09:10:22;15.25;;;7.88;;
65835;SDS011;52595;51.608;7.216;2024-01-07T09:12:49;15.10;;;8.20;;
65835;SDS011;52595;51.608;7.216;2024-01-07T09:15:17;14.43;;;8.27;;
65835;SDS011;52595;51.608;7.216;2024-01-07T09:17:43;14.13;;;8.30;;
65835;SDS011;52595;51.608;7.216;2024-01-07T09:20:09;13.35;;;7.90;;
65835;SDS011;52595;51.608;7.216;2024-01-07T09:22:35;13.60;;;7.40;;
65835;SDS011;52595;51.608;7.216;2024-01-07T09:25:02;13.57;;;7.78;;
65835;SDS011;52595;51.608;7.216;2024-01-07T09:27:31;14.30;;;7.45;;
65835;SDS011;52595;51.608;7.216;2024-01-07T09:29:57;13.18;;;7.65;;
65835;SDS011;52595;51.608;7.216;2024-01-07T09:32:23;15.38;;;7.32;;
65835;SDS011;52595;51.608;7.216;2024-01-07T09:34:48;16.50;;;8.07;;
65835;SDS011;52595;51.608;7.216;2024-01-07T09:37:14;13.77;;;7.53;;
65835;SDS011;52595;51.608;7.216;2024-01-07T09:39:39;13.10;;;7.40;;
65835;SDS011;52595;51.608;7.216;2024-01-07T09:42:07;11.65;;;6.57;;
65835;SDS011;52595;51.608;7.216;2024-01-07T09:44:43;14.00;;;7.07;;
65835;SDS011;52595;51.608;7.216;2024-01-07T09:47:13;14.98;;;7.10;;
65835;SDS011;52595;51.608;7.216;2024-01-07T09:52:05;11.38;;;5.65;;
65835;SDS011;52595;51.608;7.216;2024-01-07T09:54:31;12.48;;;5.93;;
65835;SDS011;52595;51.608;7.216;2024-01-07T09:57:02;12.23;;;6.15;;
65835;SDS011;52595;51.608;7.216;2024-01-07T09:59:28;11.00;;;5.95;;
65835;SDS011;52595;51.608;7.216;2024-01-07T10:01:55;10.13;;;5.88;;
65835;SDS011;52595;51.608;7.216;2024-01-07T10:04:20;12.95;;;6.18;;
65835;SDS011;52595;51.608;7.216;2024-01-07T10:06:46;13.40;;;6.15;;
65835;SDS011;52595;51.608;7.216;2024-01-07T10:09:14;12.25;;;6.43;;
65835;SDS011;52595;51.608;7.216;2024-01-07T10:11:40;10.93;;;6.10;;
65835;SDS011;52595;51.608;7.216;2024-01-07T10:14:06;9.07;;;5.05;;
65835;SDS011;52595;51.608;7.216;2024-01-07T10:16:32;12.00;;;5.55;;
65835;SDS011;52595;51.608;7.216;2024-01-07T10:18:58;10.52;;;5.60;;
65835;SDS011;52595;51.608;7.216;2024-01-07T10:21:23;10.50;;;5.20;;
65835;SDS011;52595;51.608;7.216;2024-01-07T10:23:49;7.78;;;4.45;;
65835;SDS011;52595;51.608;7.216;2024-01-07T10:26:15;8.65;;;4.90;;
65835;SDS011;52595;51.608;7.216;2024-01-07T10:28:41;9.27;;;4.97;;
65835;SDS011;52595;51.608;7.216;2024-01-07T10:31:08;8.45;;;4.50;;
65835;SDS011;52595;51.608;7.216;2024-01-07T10:33:34;8.75;;;5.25;;
65835;SDS011;52595;51.608;7.216;2024-01-07T10:36:02;9.15;;;5.20;;
65835;SDS011;52595;51.608;7.216;2024-01-07T10:38:31;8.45;;;4.53;;
65835;SDS011;52595;51.608;7.216;2024-01-07T10:41:00;10.80;;;5.03;;
65835;SDS011;52595;51.608;7.216;2024-01-07T10:43:28;8.70;;;4.43;;
65835;SDS011;52595;51.608;7.216;2024-01-07T10:45:54;7.97;;;4.38;;
65835;SDS011;52595;51.608;7.216;2024-01-07T10:48:20;7.75;;;4.38;;
65835;SDS011;52595;51.608;7.216;2024-01-07T10:50:49;7.82;;;4.28;;
65835;SDS011;52595;51.608;7.216;2024-01-07T10:53:20;10.27;;;4.30;;
65835;SDS011;52595;51.608;7.216;2024-01-07T10:55:59;7.20;;;4.03;;
65835;SDS011;52595;51.608;7.216;2024-01-07T10:58:28;7.32;;;4.45;;
65835;SDS011;52595;51.608;7.216;2024-01-07T11:00:55;7.07;;;4.22;;
65835;SDS011;52595;51.608;7.216;2024-01-07T11:03:30;7.65;;;4.30;;
65835;SDS011;52595;51.608;7.216;2024-01-07T11:08:43;8.68;;;4.25;;
65835;SDS011;52595;51.608;7.216;2024-01-07T11:11:19;8.60;;;4.18;;
65835;SDS011;52595;51.608;7.216;2024-01-07T11:13:57;7.68;;;4.70;;
65835;SDS011;52595;51.608;7.216;2024-01-07T11:16:41;9.02;;;4.20;;
65835;SDS011;52595;51.608;7.216;2024-01-07T11:19:07;5.60;;;3.50;;
65835;SDS011;52595;51.608;7.216;2024-01-07T11:21:33;7.75;;;3.42;;
65835;SDS011;52595;51.608;7.216;2024-01-07T11:23:58;7.55;;;3.95;;
65835;SDS011;52595;51.608;7.216;2024-01-07T11:26:23;6.90;;;3.65;;
65835;SDS011;52595;51.608;7.216;2024-01-07T11:28:53;7.22;;;3.78;;
65835;SDS011;52595;51.608;7.216;2024-01-07T11:34:06;6.50;;;3.35;;
65835;SDS011;52595;51.608;7.216;2024-01-07T11:36:32;6.85;;;3.47;;
65835;SDS011;52595;51.608;7.216;2024-01-07T11:39:00;5.40;;;3.35;;
65835;SDS011;52595;51.608;7.216;2024-01-07T11:41:27;4.85;;;3.20;;
65835;SDS011;52595;51.608;7.216;2024-01-07T11:43:57;7.75;;;3.65;;
65835;SDS011;52595;51.608;7.216;2024-01-07T11:46:26;5.65;;;3.03;;
65835;SDS011;52595;51.608;7.216;2024-01-07T11:48:53;7.00;;;3.75;;
65835;SDS011;52595;51.608;7.216;2024-01-07T11:51:26;6.35;;;3.55;;
65835;SDS011;52595;51.608;7.216;2024-01-07T11:53:57;6.63;;;3.40;;
65835;SDS011;52595;51.608;7.216;2024-01-07T11:56:23;8.05;;;3.60;;
65835;SDS011;52595;51.608;7.216;2024-01-07T11:58:49;7.82;;;3.20;;
65835;SDS011;52595;51.608;7.216;2024-01-07T12:01:15;7.07;;;3.60;;
65835;SDS011;52595;51.608;7.216;2024-01-07T12:03:42;5.60;;;3.03;;
65835;SDS011;52595;51.608;7.216;2024-01-07T12:06:08;7.10;;;3.25;;
65835;SDS011;52595;51.608;7.216;2024-01-07T12:08:38;5.50;;;3.20;;
65835;SDS011;52595;51.608;7.216;2024-01-07T12:11:04;4.47;;;3.03;;
65835;SDS011;52595;51.608;7.216;2024-01-07T12:13:30;6.47;;;3.22;;
65835;SDS011;52595;51.608;7.216;2024-01-07T12:15:56;6.43;;;3.67;;
65835;SDS011;52595;51.608;7.216;2024-01-07T12:18:22;4.88;;;3.30;;
65835;SDS011;52595;51.608;7.216;2024-01-07T12:20:59;6.35;;;3.30;;
65835;SDS011;52595;51.608;7.216;2024-01-07T12:23:25;5.93;;;3.67;;
65835;SDS011;52595;51.608;7.216;2024-01-07T12:25:51;5.50;;;3.50;;
65835;SDS011;52595;51.608;7.216;2024-01-07T12:28:22;6.70;;;3.60;;
65835;SDS011;52595;51.608;7.216;2024-01-07T12:30:48;6.03;;;3.40;;
65835;SDS011;52595;51.608;7.216;2024-01-07T12:33:18;6.03;;;3.58;;
65835;SDS011;52595;51.608;7.216;2024-01-07T12:35:47;7.00;;;3.65;;
65835;SDS011;52595;51.608;7.216;2024-01-07T12:38:12;5.65;;;3.53;;
65835;SDS011;52595;51.608;7.216;2024-01-07T12:40:38;6.85;;;3.33;;
65835;SDS011;52595;51.608;7.216;2024-01-07T12:43:04;6.28;;;3.35;;
65835;SDS011;52595;51.608;7.216;2024-01-07T12:45:32;5.82;;;3.55;;
65835;SDS011;52595;51.608;7.216;2024-01-07T12:47:57;6.68;;;3.42;;
65835;SDS011;52595;51.608;7.216;2024-01-07T12:50:26;6.57;;;3.45;;
65835;SDS011;52595;51.608;7.216;2024-01-07T12:52:54;5.25;;;3.08;;
65835;SDS011;52595;51.608;7.216;2024-01-07T12:55:20;7.32;;;3.50;;
65835;SDS011;52595;51.608;7.216;2024-01-07T12:57:47;6.10;;;3.58;;
65835;SDS011;52595;51.608;7.216;2024-01-07T13:00:12;5.03;;;3.10;;
65835;SDS011;52595;51.608;7.216;2024-01-07T13:02:38;6.85;;;3.92;;
65835;SDS011;52595;51.608;7.216;2024-01-07T13:05:05;5.82;;;3.72;;
65835;SDS011;52595;51.608;7.216;2024-01-07T13:07:31;5.95;;;3.30;;
65835;SDS011;52595;51.608;7.216;2024-01-07T13:09:57;6.38;;;3.70;;
65835;SDS011;52595;51.608;7.216;2024-01-07T13:12:22;5.93;;;3.20;;
65835;SDS011;52595;51.608;7.216;2024-01-07T13:14:48;4.85;;;2.92;;
65835;SDS011;52595;51.608;7.216;2024-01-07T13:17:13;6.30;;;3.42;;
65835;SDS011;52595;51.608;7.216;2024-01-07T13:19:39;6.22;;;3.42;;
65835;SDS011;52595;51.608;7.216;2024-01-07T13:22:05;4.95;;;3.15;;
65835;SDS011;52595;51.608;7.216;2024-01-07T13:24:30;7.00;;;3.20;;
65835;SDS011;52595;51.608;7.216;2024-01-07T13:26:56;4.95;;;3.28;;
65835;SDS011;52595;51.608;7.216;2024-01-07T13:29:21;5.82;;;3.42;;
65835;SDS011;52595;51.608;7.216;2024-01-07T13:31:47;5.15;;;3.20;;
65835;SDS011;52595;51.608;7.216;2024-01-07T13:34:12;4.75;;;2.85;;
65835;SDS011;52595;51.608;7.216;2024-01-07T13:36:39;5.28;;;2.97;;
65835;SDS011;52595;51.608;7.216;2024-01-07T13:39:05;4.15;;;2.45;;
65835;SDS011;52595;51.608;7.216;2024-01-07T13:41:32;4.78;;;2.90;;
65835;SDS011;52595;51.608;7.216;2024-01-07T13:43:58;6.65;;;3.00;;
65835;SDS011;52595;51.608;7.216;2024-01-07T13:46:24;5.10;;;2.92;;
65835;SDS011;52595;51.608;7.216;2024-01-07T13:48:50;4.70;;;3.00;;
65835;SDS011;52595;51.608;7.216;2024-01-07T13:51:16;4.88;;;3.00;;
65835;SDS011;52595;51.608;7.216;2024-01-07T13:53:42;7.10;;;3.22;;
65835;SDS011;52595;51.608;7.216;2024-01-07T13:56:08;5.57;;;3.30;;
65835;SDS011;52595;51.608;7.216;2024-01-07T13:58:33;6.35;;;3.55;;
65835;SDS011;52595;51.608;7.216;2024-01-07T14:00:59;4.75;;;2.70;;
65835;SDS011;52595;51.608;7.216;2024-01-07T14:03:24;5.50;;;3.00;;
65835;SDS011;52595;51.608;7.216;2024-01-07T14:05:50;7.18;;;3.92;;
65835;SDS011;52595;51.608;7.216;2024-01-07T14:08:16;4.40;;;2.80;;
65835;SDS011;52595;51.608;7.216;2024-01-07T14:10:42;4.75;;;2.88;;
65835;SDS011;52595;51.608;7.216;2024-01-07T14:13:07;4.93;;;2.65;;
65835;SDS011;52595;51.608;7.216;2024-01-07T14:15:32;4.68;;;2.85;;
65835;SDS011;52595;51.608;7.216;2024-01-07T14:17:58;5.05;;;2.95;;
65835;SDS011;52595;51.608;7.216;2024-01-07T14:20:23;4.72;;;2.72;;
65835;SDS011;52595;51.608;7.216;2024-01-07T14:22:48;5.32;;;3.28;;
65835;SDS011;52595;51.608;7.216;2024-01-07T14:25:14;6.03;;;2.95;;
65835;SDS011;52595;51.608;7.216;2024-01-07T14:27:40;5.25;;;2.80;;
65835;SDS011;52595;51.608;7.216;2024-01-07T14:30:05;6.88;;;3.60;;
65835;SDS011;52595;51.608;7.216;2024-01-07T14:32:32;6.07;;;2.83;;